sensor_id;sensor_type;location;lat;lon;timestamp;P1;durP1;ratioP1;P2;durP2;ratioP2
10947;SDS011;5526;42.070;24.752;2023-04-03T00:00:39;0.50;;;0.50;;
10947;SDS011;5526;42.070;24.752;2023-04-03T00:03:07;0.50;;;0.50;;
10947;SDS011;5526;42.070;24.752;2023-04-03T00:05:34;0.63;;;0.50;;
10947;SDS011;5526;42.070;24.752;2023-04-03T00:08:01;0.43;;;0.43;;
10947;SDS011;5526;42.070;24.752;2023-04-03T00:10:30;1.52;;;0.70;;
10947;SDS011;5526;42.070;24.752;2023-04-03T00:12:57;0.60;;;0.60;;
10947;SDS011;5526;42.070;24.752;2023-04-03T00:15:26;0.50;;;0.50;;
10947;SDS011;5526;42.070;24.752;2023-04-03T00:17:54;0.60;;;0.60;;
10947;SDS011;5526;42.070;24.752;2023-04-03T00:20:21;0.50;;;0.50;;
10947;SDS011;5526;42.070;24.752;2023-04-03T00:22:48;0.60;;;0.60;;
10947;SDS011;5526;42.070;24.752;2023-04-03T00:25:15;0.88;;;0.80;;
10947;SDS011;5526;42.070;24.752;2023-04-03T00:27:44;1.35;;;0.70;;
10947;SDS011;5526;42.070;24.752;2023-04-03T00:30:13;0.95;;;0.95;;
10947;SDS011;5526;42.070;24.752;2023-04-03T00:32:43;0.80;;;0.80;;
10947;SDS011;5526;42.070;24.752;2023-04-03T00:35:12;0.88;;;0.80;;
10947;SDS011;5526;42.070;24.752;2023-04-03T00:37:42;0.82;;;0.75;;
10947;SDS011;5526;42.070;24.752;2023-04-03T00:40:10;0.77;;;0.40;;
10947;SDS011;5526;42.070;24.752;2023-04-03T00:42:38;0.60;;;0.60;;
10947;SDS011;5526;42.070;24.752;2023-04-03T00:48:00;1.25;;;0.75;;
10947;SDS011;5526;42.070;24.752;2023-04-03T00:50:31;0.98;;;0.90;;
10947;SDS011;5526;42.070;24.752;2023-04-03T00:53:00;1.98;;;1.85;;
10947;SDS011;5526;42.070;24.752;2023-04-03T00:55:29;1.33;;;1.23;;
10947;SDS011;5526;42.070;24.752;2023-04-03T00:57:56;1.00;;;0.90;;
10947;SDS011;5526;42.070;24.752;2023-04-03T01:00:24;1.08;;;0.73;;
10947;SDS011;5526;42.070;24.752;2023-04-03T01:02:53;0.80;;;0.80;;
10947;SDS011;5526;42.070;24.752;2023-04-03T01:05:21;0.73;;;0.50;;
10947;SDS011;5526;42.070;24.752;2023-04-03T01:07:50;1.02;;;0.70;;
10947;SDS011;5526;42.070;24.752;2023-04-03T01:10:18;0.70;;;0.60;;
10947;SDS011;5526;42.070;24.752;2023-04-03T01:12:47;1.92;;;1.00;;
10947;SDS011;5526;42.070;24.752;2023-04-03T01:15:15;4.82;;;2.92;;
10947;SDS011;5526;42.070;24.752;2023-04-03T01:17:45;2.65;;;2.00;;
10947;SDS011;5526;42.070;24.752;2023-04-03T01:23:40;0.90;;;0.80;;
10947;SDS011;5526;42.070;24.752;2023-04-03T01:26:20;0.60;;;0.60;;
10947;SDS011;5526;42.070;24.752;2023-04-03T01:28:48;0.50;;;0.50;;
10947;SDS011;5526;42.070;24.752;2023-04-03T01:31:19;1.38;;;0.50;;
10947;SDS011;5526;42.070;24.752;2023-04-03T01:33:52;0.43;;;0.43;;
10947;SDS011;5526;42.070;24.752;2023-04-03T01:36:22;0.40;;;0.40;;
10947;SDS011;5526;42.070;24.752;2023-04-03T01:38:52;0.50;;;0.50;;
10947;SDS011;5526;42.070;24.752;2023-04-03T01:41:22;0.50;;;0.50;;
10947;SDS011;5526;42.070;24.752;2023-04-03T01:43:50;0.82;;;0.50;;
10947;SDS011;5526;42.070;24.752;2023-04-03T01:46:18;0.55;;;0.55;;
10947;SDS011;5526;42.070;24.752;2023-04-03T01:48:46;0.70;;;0.50;;
10947;SDS011;5526;42.070;24.752;2023-04-03T01:51:14;0.50;;;0.50;;
10947;SDS011;5526;42.070;24.752;2023-04-03T01:53:43;0.50;;;0.50;;
10947;SDS011;5526;42.070;24.752;2023-04-03T01:56:10;0.40;;;0.40;;
10947;SDS011;5526;42.070;24.752;2023-04-03T01:58:38;0.50;;;0.40;;
10947;SDS011;5526;42.070;24.752;2023-04-03T02:01:05;0.88;;;0.60;;
10947;SDS011;5526;42.070;24.752;2023-04-03T02:03:32;1.50;;;0.50;;
10947;SDS011;5526;42.070;24.752;2023-04-03T02:05:59;1.70;;;1.60;;
10947;SDS011;5526;42.070;24.752;2023-04-03T02:08:29;0.90;;;0.90;;
10947;SDS011;5526;42.070;24.752;2023-04-03T02:10:56;1.05;;;0.95;;
10947;SDS011;5526;42.070;24.752;2023-04-03T02:13:23;1.52;;;0.95;;
10947;SDS011;5526;42.070;24.752;2023-04-03T02:15:50;1.70;;;1.60;;
10947;SDS011;5526;42.070;24.752;2023-04-03T02:18:18;1.95;;;1.85;;
10947;SDS011;5526;42.070;24.752;2023-04-03T02:20:46;1.60;;;1.50;;
10947;SDS011;5526;42.070;24.752;2023-04-03T02:23:13;0.90;;;0.88;;
10947;SDS011;5526;42.070;24.752;2023-04-03T02:25:42;1.10;;;1.00;;
10947;SDS011;5526;42.070;24.752;2023-04-03T02:28:09;1.30;;;1.15;;
10947;SDS011;5526;42.070;24.752;2023-04-03T02:30:36;4.53;;;3.50;;
10947;SDS011;5526;42.070;24.752;2023-04-03T02:33:05;6.38;;;5.55;;
10947;SDS011;5526;42.070;24.752;2023-04-03T02:35:32;3.65;;;3.00;;
10947;SDS011;5526;42.070;24.752;2023-04-03T02:37:58;3.70;;;3.40;;
10947;SDS011;5526;42.070;24.752;2023-04-03T02:40:25;2.42;;;2.22;;
10947;SDS011;5526;42.070;24.752;2023-04-03T02:42:55;2.40;;;2.20;;
10947;SDS011;5526;42.070;24.752;2023-04-03T02:45:22;2.42;;;1.80;;
10947;SDS011;5526;42.070;24.752;2023-04-03T02:47:50;1.80;;;1.70;;
10947;SDS011;5526;42.070;24.752;2023-04-03T02:50:17;1.40;;;1.30;;
10947;SDS011;5526;42.070;24.752;2023-04-03T02:52:45;2.13;;;1.30;;
10947;SDS011;5526;42.070;24.752;2023-04-03T02:55:13;1.58;;;1.27;;
10947;SDS011;5526;42.070;24.752;2023-04-03T02:57:41;1.40;;;1.30;;
10947;SDS011;5526;42.070;24.752;2023-04-03T03:00:10;4.03;;;1.80;;
10947;SDS011;5526;42.070;24.752;2023-04-03T03:02:38;2.08;;;1.88;;
10947;SDS011;5526;42.070;24.752;2023-04-03T03:05:05;2.58;;;1.77;;
10947;SDS011;5526;42.070;24.752;2023-04-03T03:07:32;1.45;;;1.30;;
10947;SDS011;5526;42.070;24.752;2023-04-03T03:10:01;1.45;;;1.13;;
10947;SDS011;5526;42.070;24.752;2023-04-03T03:12:28;1.55;;;1.15;;
10947;SDS011;5526;42.070;24.752;2023-04-03T03:14:56;1.40;;;1.30;;
10947;SDS011;5526;42.070;24.752;2023-04-03T03:17:24;1.90;;;1.75;;
10947;SDS011;5526;42.070;24.752;2023-04-03T03:19:51;2.60;;;2.40;;
10947;SDS011;5526;42.070;24.752;2023-04-03T03:22:19;2.63;;;2.42;;
10947;SDS011;5526;42.070;24.752;2023-04-03T03:24:47;2.17;;;1.77;;
10947;SDS011;5526;42.070;24.752;2023-04-03T03:27:15;2.15;;;1.88;;
10947;SDS011;5526;42.070;24.752;2023-04-03T03:29:43;4.43;;;1.60;;
10947;SDS011;5526;42.070;24.752;2023-04-03T03:32:10;1.25;;;1.15;;
10947;SDS011;5526;42.070;24.752;2023-04-03T03:34:38;1.10;;;1.00;;
10947;SDS011;5526;42.070;24.752;2023-04-03T03:37:05;1.98;;;1.30;;
10947;SDS011;5526;42.070;24.752;2023-04-03T03:39:34;2.00;;;1.10;;
10947;SDS011;5526;42.070;24.752;2023-04-03T03:42:01;1.05;;;0.98;;
10947;SDS011;5526;42.070;24.752;2023-04-03T03:44:30;0.95;;;0.70;;
10947;SDS011;5526;42.070;24.752;2023-04-03T03:46:57;1.02;;;0.70;;
10947;SDS011;5526;42.070;24.752;2023-04-03T03:49:25;2.28;;;0.70;;
10947;SDS011;5526;42.070;24.752;2023-04-03T03:51:54;1.90;;;0.80;;
10947;SDS011;5526;42.070;24.752;2023-04-03T03:54:21;1.70;;;0.80;;
10947;SDS011;5526;42.070;24.752;2023-04-03T03:56:48;1.52;;;0.80;;
10947;SDS011;5526;42.070;24.752;2023-04-03T03:59:15;1.30;;;0.80;;
10947;SDS011;5526;42.070;24.752;2023-04-03T04:01:42;0.60;;;0.60;;
10947;SDS011;5526;42.070;24.752;2023-04-03T04:04:09;1.98;;;0.95;;
10947;SDS011;5526;42.070;24.752;2023-04-03T04:06:38;0.88;;;0.80;;
10947;SDS011;5526;42.070;24.752;2023-04-03T04:09:06;2.13;;;0.70;;
10947;SDS011;5526;42.070;24.752;2023-04-03T04:11:35;1.40;;;1.00;;
10947;SDS011;5526;42.070;24.752;2023-04-03T04:14:02;0.80;;;0.70;;
10947;SDS011;5526;42.070;24.752;2023-04-03T04:16:29;1.00;;;0.90;;
10947;SDS011;5526;42.070;24.752;2023-04-03T04:18:56;1.52;;;0.95;;
10947;SDS011;5526;42.070;24.752;2023-04-03T04:21:23;3.75;;;2.33;;
10947;SDS011;5526;42.070;24.752;2023-04-03T04:23:51;6.40;;;2.50;;
10947;SDS011;5526;42.070;24.752;2023-04-03T04:26:20;4.75;;;3.50;;
10947;SDS011;5526;42.070;24.752;2023-04-03T04:28:47;3.78;;;2.60;;
10947;SDS011;5526;42.070;24.752;2023-04-03T04:31:14;2.78;;;2.33;;
10947;SDS011;5526;42.070;24.752;2023-04-03T04:33:41;3.10;;;1.63;;
10947;SDS011;5526;42.070;24.752;2023-04-03T04:36:08;5.05;;;1.73;;
10947;SDS011;5526;42.070;24.752;2023-04-03T04:38:36;1.50;;;1.40;;
10947;SDS011;5526;42.070;24.752;2023-04-03T04:41:03;9.13;;;1.65;;
10947;SDS011;5526;42.070;24.752;2023-04-03T04:43:32;2.85;;;1.23;;
10947;SDS011;5526;42.070;24.752;2023-04-03T04:46:00;1.80;;;1.50;;
10947;SDS011;5526;42.070;24.752;2023-04-03T04:48:28;3.47;;;1.48;;
10947;SDS011;5526;42.070;24.752;2023-04-03T04:50:55;1.75;;;1.40;;
10947;SDS011;5526;42.070;24.752;2023-04-03T04:53:22;1.65;;;1.30;;
10947;SDS011;5526;42.070;24.752;2023-04-03T04:55:50;2.70;;;1.95;;
10947;SDS011;5526;42.070;24.752;2023-04-03T04:58:18;2.10;;;1.90;;
10947;SDS011;5526;42.070;24.752;2023-04-03T05:00:47;1.80;;;1.70;;
10947;SDS011;5526;42.070;24.752;2023-04-03T05:03:14;2.38;;;2.17;;
10947;SDS011;5526;42.070;24.752;2023-04-03T05:05:41;2.20;;;2.00;;
10947;SDS011;5526;42.070;24.752;2023-04-03T05:08:08;2.15;;;1.88;;
10947;SDS011;5526;42.070;24.752;2023-04-03T05:10:35;3.17;;;2.00;;
10947;SDS011;5526;42.070;24.752;2023-04-03T05:13:04;3.65;;;2.17;;
10947;SDS011;5526;42.070;24.752;2023-04-03T05:15:30;3.15;;;2.40;;
10947;SDS011;5526;42.070;24.752;2023-04-03T05:17:59;2.55;;;2.30;;
10947;SDS011;5526;42.070;24.752;2023-04-03T05:20:26;2.53;;;1.80;;
10947;SDS011;5526;42.070;24.752;2023-04-03T05:22:54;3.00;;;2.10;;
10947;SDS011;5526;42.070;24.752;2023-04-03T05:25:23;4.15;;;2.40;;
10947;SDS011;5526;42.070;24.752;2023-04-03T05:27:50;3.58;;;2.20;;
10947;SDS011;5526;42.070;24.752;2023-04-03T05:30:17;2.60;;;1.80;;
10947;SDS011;5526;42.070;24.752;2023-04-03T05:32:44;3.40;;;1.98;;
10947;SDS011;5526;42.070;24.752;2023-04-03T05:35:13;2.03;;;1.80;;
10947;SDS011;5526;42.070;24.752;2023-04-03T05:37:40;3.60;;;2.20;;
10947;SDS011;5526;42.070;24.752;2023-04-03T05:40:08;3.45;;;2.15;;
10947;SDS011;5526;42.070;24.752;2023-04-03T05:42:36;2.10;;;1.90;;
10947;SDS011;5526;42.070;24.752;2023-04-03T05:45:04;4.65;;;2.28;;
10947;SDS011;5526;42.070;24.752;2023-04-03T05:47:31;4.05;;;1.83;;
10947;SDS011;5526;42.070;24.752;2023-04-03T05:49:58;5.60;;;2.90;;
10947;SDS011;5526;42.070;24.752;2023-04-03T05:52:27;2.92;;;2.30;;
10947;SDS011;5526;42.070;24.752;2023-04-03T05:54:57;3.53;;;2.17;;
10947;SDS011;5526;42.070;24.752;2023-04-03T05:57:24;4.60;;;2.40;;
10947;SDS011;5526;42.070;24.752;2023-04-03T05:59:51;3.38;;;2.38;;
10947;SDS011;5526;42.070;24.752;2023-04-03T06:02:20;7.10;;;2.60;;
10947;SDS011;5526;42.070;24.752;2023-04-03T06:04:48;7.38;;;2.42;;
10947;SDS011;5526;42.070;24.752;2023-04-03T06:07:17;3.60;;;2.20;;
10947;SDS011;5526;42.070;24.752;2023-04-03T06:09:47;7.40;;;5.20;;
10947;SDS011;5526;42.070;24.752;2023-04-03T06:12:15;8.45;;;4.72;;
10947;SDS011;5526;42.070;24.752;2023-04-03T06:14:42;9.35;;;4.05;;
10947;SDS011;5526;42.070;24.752;2023-04-03T06:17:09;8.15;;;5.05;;
10947;SDS011;5526;42.070;24.752;2023-04-03T06:19:37;6.35;;;4.00;;
10947;SDS011;5526;42.070;24.752;2023-04-03T06:22:04;6.93;;;4.57;;
10947;SDS011;5526;42.070;24.752;2023-04-03T06:24:31;7.03;;;5.13;;
10947;SDS011;5526;42.070;24.752;2023-04-03T06:27:00;7.38;;;5.20;;
10947;SDS011;5526;42.070;24.752;2023-04-03T06:29:27;8.38;;;5.50;;
10947;SDS011;5526;42.070;24.752;2023-04-03T06:31:54;6.32;;;4.70;;
10947;SDS011;5526;42.070;24.752;2023-04-03T06:34:21;7.03;;;4.78;;
10947;SDS011;5526;42.070;24.752;2023-04-03T06:36:48;7.30;;;4.50;;
10947;SDS011;5526;42.070;24.752;2023-04-03T06:39:16;5.75;;;4.65;;
10947;SDS011;5526;42.070;24.752;2023-04-03T06:41:46;5.50;;;4.40;;
10947;SDS011;5526;42.070;24.752;2023-04-03T06:44:14;5.13;;;4.63;;
10947;SDS011;5526;42.070;24.752;2023-04-03T06:46:41;5.57;;;4.70;;
10947;SDS011;5526;42.070;24.752;2023-04-03T06:49:09;7.00;;;5.15;;
10947;SDS011;5526;42.070;24.752;2023-04-03T06:51:36;9.35;;;5.80;;
10947;SDS011;5526;42.070;24.752;2023-04-03T06:54:04;10.35;;;5.80;;
10947;SDS011;5526;42.070;24.752;2023-04-03T06:56:33;8.40;;;6.63;;
10947;SDS011;5526;42.070;24.752;2023-04-03T06:59:00;10.18;;;5.30;;
10947;SDS011;5526;42.070;24.752;2023-04-03T07:01:29;6.70;;;5.25;;
10947;SDS011;5526;42.070;24.752;2023-04-03T07:03:56;6.18;;;5.18;;
10947;SDS011;5526;42.070;24.752;2023-04-03T07:06:23;8.00;;;5.07;;
10947;SDS011;5526;42.070;24.752;2023-04-03T07:08:52;7.07;;;4.75;;
10947;SDS011;5526;42.070;24.752;2023-04-03T07:11:19;6.03;;;3.88;;
10947;SDS011;5526;42.070;24.752;2023-04-03T07:13:46;5.65;;;4.10;;
10947;SDS011;5526;42.070;24.752;2023-04-03T07:16:13;5.18;;;3.97;;
10947;SDS011;5526;42.070;24.752;2023-04-03T07:18:42;7.90;;;4.00;;
10947;SDS011;5526;42.070;24.752;2023-04-03T07:21:09;6.32;;;4.40;;
10947;SDS011;5526;42.070;24.752;2023-04-03T07:23:36;8.00;;;5.00;;
10947;SDS011;5526;42.070;24.752;2023-04-03T07:26:03;9.85;;;5.25;;
10947;SDS011;5526;42.070;24.752;2023-04-03T07:28:30;6.47;;;4.20;;
10947;SDS011;5526;42.070;24.752;2023-04-03T07:30:59;5.93;;;3.72;;
10947;SDS011;5526;42.070;24.752;2023-04-03T07:33:27;4.80;;;3.80;;
10947;SDS011;5526;42.070;24.752;2023-04-03T07:35:56;7.47;;;5.20;;
10947;SDS011;5526;42.070;24.752;2023-04-03T07:38:24;9.15;;;4.75;;
10947;SDS011;5526;42.070;24.752;2023-04-03T07:40:51;9.88;;;5.18;;
10947;SDS011;5526;42.070;24.752;2023-04-03T07:43:19;7.75;;;5.82;;
10947;SDS011;5526;42.070;24.752;2023-04-03T07:45:47;9.70;;;5.80;;
10947;SDS011;5526;42.070;24.752;2023-04-03T07:48:16;6.47;;;5.82;;
10947;SDS011;5526;42.070;24.752;2023-04-03T07:50:46;7.63;;;5.13;;
10947;SDS011;5526;42.070;24.752;2023-04-03T07:53:14;10.18;;;5.97;;
10947;SDS011;5526;42.070;24.752;2023-04-03T07:55:41;10.60;;;6.80;;
10947;SDS011;5526;42.070;24.752;2023-04-03T07:58:09;10.27;;;6.85;;
10947;SDS011;5526;42.070;24.752;2023-04-03T08:00:37;9.15;;;5.80;;
10947;SDS011;5526;42.070;24.752;2023-04-03T08:03:05;6.10;;;4.40;;
10947;SDS011;5526;42.070;24.752;2023-04-03T08:05:36;4.82;;;3.90;;
10947;SDS011;5526;42.070;24.752;2023-04-03T08:08:03;4.80;;;3.20;;
10947;SDS011;5526;42.070;24.752;2023-04-03T08:10:32;5.60;;;3.55;;
10947;SDS011;5526;42.070;24.752;2023-04-03T08:13:00;4.03;;;2.72;;
10947;SDS011;5526;42.070;24.752;2023-04-03T08:15:27;4.57;;;2.85;;
10947;SDS011;5526;42.070;24.752;2023-04-03T08:17:56;7.05;;;3.03;;
10947;SDS011;5526;42.070;24.752;2023-04-03T08:20:23;5.32;;;3.28;;
10947;SDS011;5526;42.070;24.752;2023-04-03T08:22:50;6.95;;;3.25;;
10947;SDS011;5526;42.070;24.752;2023-04-03T08:25:17;5.28;;;3.80;;
10947;SDS011;5526;42.070;24.752;2023-04-03T08:27:46;6.90;;;3.88;;
10947;SDS011;5526;42.070;24.752;2023-04-03T08:30:13;4.20;;;3.67;;
10947;SDS011;5526;42.070;24.752;2023-04-03T08:32:40;6.78;;;4.18;;
10947;SDS011;5526;42.070;24.752;2023-04-03T08:35:08;8.30;;;4.07;;
10947;SDS011;5526;42.070;24.752;2023-04-03T08:37:35;6.30;;;4.78;;
10947;SDS011;5526;42.070;24.752;2023-04-03T08:40:04;4.57;;;4.13;;
10947;SDS011;5526;42.070;24.752;2023-04-03T08:42:36;5.15;;;4.40;;
10947;SDS011;5526;42.070;24.752;2023-04-03T08:45:14;5.68;;;4.60;;
10947;SDS011;5526;42.070;24.752;2023-04-03T08:47:45;4.72;;;4.13;;
10947;SDS011;5526;42.070;24.752;2023-04-03T08:50:17;5.88;;;4.15;;
10947;SDS011;5526;42.070;24.752;2023-04-03T08:52:47;7.68;;;5.20;;
10947;SDS011;5526;42.070;24.752;2023-04-03T08:55:20;6.45;;;4.93;;
10947;SDS011;5526;42.070;24.752;2023-04-03T08:57:50;7.47;;;5.35;;
10947;SDS011;5526;42.070;24.752;2023-04-03T09:00:25;5.85;;;4.40;;
10947;SDS011;5526;42.070;24.752;2023-04-03T09:02:56;7.60;;;4.82;;
10947;SDS011;5526;42.070;24.752;2023-04-03T09:05:28;7.30;;;4.85;;
10947;SDS011;5526;42.070;24.752;2023-04-03T09:08:05;6.22;;;4.32;;
10947;SDS011;5526;42.070;24.752;2023-04-03T09:10:38;5.95;;;4.30;;
10947;SDS011;5526;42.070;24.752;2023-04-03T09:13:09;5.43;;;3.60;;
10947;SDS011;5526;42.070;24.752;2023-04-03T09:15:46;10.65;;;3.65;;
10947;SDS011;5526;42.070;24.752;2023-04-03T09:18:15;4.50;;;2.90;;
10947;SDS011;5526;42.070;24.752;2023-04-03T09:20:46;4.65;;;3.15;;
10947;SDS011;5526;42.070;24.752;2023-04-03T09:23:24;4.72;;;3.17;;
10947;SDS011;5526;42.070;24.752;2023-04-03T09:25:57;4.70;;;2.92;;
10947;SDS011;5526;42.070;24.752;2023-04-03T09:28:31;9.13;;;3.15;;
10947;SDS011;5526;42.070;24.752;2023-04-03T09:31:18;3.92;;;3.38;;
10947;SDS011;5526;42.070;24.752;2023-04-03T09:33:47;3.00;;;2.55;;
10947;SDS011;5526;42.070;24.752;2023-04-03T09:39:08;4.18;;;3.10;;
10947;SDS011;5526;42.070;24.752;2023-04-03T09:41:38;5.72;;;3.10;;
10947;SDS011;5526;42.070;24.752;2023-04-03T09:44:17;5.10;;;3.55;;
10947;SDS011;5526;42.070;24.752;2023-04-03T09:46:49;9.27;;;4.07;;
10947;SDS011;5526;42.070;24.752;2023-04-03T09:49:16;5.85;;;4.55;;
10947;SDS011;5526;42.070;24.752;2023-04-03T09:51:44;6.07;;;3.65;;
10947;SDS011;5526;42.070;24.752;2023-04-03T09:57:06;3.42;;;3.13;;
10947;SDS011;5526;42.070;24.752;2023-04-03T09:59:36;4.45;;;3.60;;
10947;SDS011;5526;42.070;24.752;2023-04-03T10:02:19;3.47;;;3.17;;
10947;SDS011;5526;42.070;24.752;2023-04-03T10:04:51;2.97;;;2.70;;
10947;SDS011;5526;42.070;24.752;2023-04-03T10:07:29;3.25;;;2.53;;
10947;SDS011;5526;42.070;24.752;2023-04-03T10:09:58;5.72;;;2.60;;
10947;SDS011;5526;42.070;24.752;2023-04-03T10:12:28;3.63;;;2.47;;
10947;SDS011;5526;42.070;24.752;2023-04-03T10:14:56;2.92;;;2.10;;
10947;SDS011;5526;42.070;24.752;2023-04-03T10:17:41;2.40;;;2.20;;
10947;SDS011;5526;42.070;24.752;2023-04-03T10:20:21;4.10;;;2.70;;
10947;SDS011;5526;42.070;24.752;2023-04-03T10:22:56;3.13;;;2.35;;
10947;SDS011;5526;42.070;24.752;2023-04-03T10:25:30;2.53;;;2.33;;
10947;SDS011;5526;42.070;24.752;2023-04-03T10:28:07;2.85;;;2.45;;
10947;SDS011;5526;42.070;24.752;2023-04-03T10:30:42;3.10;;;2.80;;
10947;SDS011;5526;42.070;24.752;2023-04-03T10:33:19;2.85;;;2.45;;
10947;SDS011;5526;42.070;24.752;2023-04-03T10:35:58;2.75;;;2.55;;
10947;SDS011;5526;42.070;24.752;2023-04-03T10:38:40;2.55;;;2.30;;
10947;SDS011;5526;42.070;24.752;2023-04-03T10:41:16;4.18;;;2.30;;
10947;SDS011;5526;42.070;24.752;2023-04-03T10:43:50;2.35;;;2.10;;
10947;SDS011;5526;42.070;24.752;2023-04-03T10:46:27;2.53;;;2.33;;
10947;SDS011;5526;42.070;24.752;2023-04-03T10:49:03;3.05;;;2.78;;
10947;SDS011;5526;42.070;24.752;2023-04-03T10:51:41;2.45;;;2.17;;
10947;SDS011;5526;42.070;24.752;2023-04-03T10:54:11;2.17;;;2.08;;
10947;SDS011;5526;42.070;24.752;2023-04-03T10:56:43;2.50;;;2.28;;
10947;SDS011;5526;42.070;24.752;2023-04-03T10:59:18;3.08;;;2.78;;
10947;SDS011;5526;42.070;24.752;2023-04-03T11:01:52;3.00;;;2.75;;
10947;SDS011;5526;42.070;24.752;2023-04-03T11:04:24;2.83;;;2.30;;
10947;SDS011;5526;42.070;24.752;2023-04-03T11:06:55;3.45;;;3.15;;
10947;SDS011;5526;42.070;24.752;2023-04-03T11:09:26;4.28;;;3.88;;
10947;SDS011;5526;42.070;24.752;2023-04-03T11:11:58;1.80;;;1.70;;
10947;SDS011;5526;42.070;24.752;2023-04-03T11:14:31;1.00;;;1.00;;
10947;SDS011;5526;42.070;24.752;2023-04-03T11:19:50;2.58;;;1.13;;
10947;SDS011;5526;42.070;24.752;2023-04-03T11:22:26;1.27;;;1.15;;
10947;SDS011;5526;42.070;24.752;2023-04-03T11:24:58;1.52;;;1.42;;
10947;SDS011;5526;42.070;24.752;2023-04-03T11:27:32;1.17;;;1.10;;
10947;SDS011;5526;42.070;24.752;2023-04-03T11:30:06;2.47;;;1.50;;
10947;SDS011;5526;42.070;24.752;2023-04-03T11:32:48;3.20;;;1.75;;
10947;SDS011;5526;42.070;24.752;2023-04-03T11:35:28;3.33;;;1.58;;
10947;SDS011;5526;42.070;24.752;2023-04-03T11:37:56;2.25;;;1.60;;
10947;SDS011;5526;42.070;24.752;2023-04-03T11:40:26;2.47;;;1.60;;
10947;SDS011;5526;42.070;24.752;2023-04-03T11:43:02;1.88;;;1.73;;
10947;SDS011;5526;42.070;24.752;2023-04-03T11:45:34;1.65;;;1.45;;
10947;SDS011;5526;42.070;24.752;2023-04-03T11:48:04;2.15;;;1.40;;
10947;SDS011;5526;42.070;24.752;2023-04-03T11:50:41;1.30;;;1.20;;
10947;SDS011;5526;42.070;24.752;2023-04-03T11:53:30;1.63;;;1.52;;
10947;SDS011;5526;42.070;24.752;2023-04-03T11:59:15;2.15;;;2.05;;
10947;SDS011;5526;42.070;24.752;2023-04-03T12:01:48;2.78;;;2.00;;
10947;SDS011;5526;42.070;24.752;2023-04-03T12:04:17;2.00;;;1.80;;
10947;SDS011;5526;42.070;24.752;2023-04-03T12:12:43;2.67;;;2.47;;
10947;SDS011;5526;42.070;24.752;2023-04-03T12:21:22;3.92;;;2.83;;
10947;SDS011;5526;42.070;24.752;2023-04-03T12:24:01;5.70;;;3.13;;
10947;SDS011;5526;42.070;24.752;2023-04-03T12:26:32;3.53;;;3.22;;
10947;SDS011;5526;42.070;24.752;2023-04-03T12:29:10;3.90;;;3.47;;
10947;SDS011;5526;42.070;24.752;2023-04-03T12:31:44;3.80;;;3.47;;
10947;SDS011;5526;42.070;24.752;2023-04-03T12:34:26;4.72;;;3.88;;
10947;SDS011;5526;42.070;24.752;2023-04-03T12:37:15;4.72;;;4.30;;
10947;SDS011;5526;42.070;24.752;2023-04-03T12:39:54;4.88;;;4.25;;
10947;SDS011;5526;42.070;24.752;2023-04-03T12:42:40;4.65;;;3.60;;
10947;SDS011;5526;42.070;24.752;2023-04-03T12:45:25;4.18;;;3.83;;
10947;SDS011;5526;42.070;24.752;2023-04-03T12:47:53;4.05;;;3.65;;
10947;SDS011;5526;42.070;24.752;2023-04-03T12:50:22;5.15;;;4.20;;
10947;SDS011;5526;42.070;24.752;2023-04-03T12:52:52;4.32;;;3.45;;
10947;SDS011;5526;42.070;24.752;2023-04-03T12:55:25;4.45;;;4.07;;
10947;SDS011;5526;42.070;24.752;2023-04-03T12:57:53;3.10;;;2.90;;
10947;SDS011;5526;42.070;24.752;2023-04-03T13:00:21;3.78;;;3.20;;
10947;SDS011;5526;42.070;24.752;2023-04-03T13:02:54;5.88;;;3.95;;
10947;SDS011;5526;42.070;24.752;2023-04-03T13:05:22;4.60;;;4.10;;
10947;SDS011;5526;42.070;24.752;2023-04-03T13:07:49;4.38;;;3.65;;
10947;SDS011;5526;42.070;24.752;2023-04-03T13:10:21;4.75;;;3.95;;
10947;SDS011;5526;42.070;24.752;2023-04-03T13:12:52;4.45;;;4.13;;
10947;SDS011;5526;42.070;24.752;2023-04-03T13:15:22;4.93;;;4.40;;
10947;SDS011;5526;42.070;24.752;2023-04-03T13:17:50;4.88;;;4.45;;
10947;SDS011;5526;42.070;24.752;2023-04-03T13:20:19;6.30;;;5.90;;
10947;SDS011;5526;42.070;24.752;2023-04-03T13:22:53;6.05;;;5.03;;
10947;SDS011;5526;42.070;24.752;2023-04-03T13:25:26;5.68;;;5.18;;
10947;SDS011;5526;42.070;24.752;2023-04-03T13:27:57;6.20;;;5.70;;
10947;SDS011;5526;42.070;24.752;2023-04-03T13:30:27;7.40;;;6.70;;
10947;SDS011;5526;42.070;24.752;2023-04-03T13:32:55;6.63;;;6.00;;
10947;SDS011;5526;42.070;24.752;2023-04-03T13:35:35;5.95;;;5.25;;
10947;SDS011;5526;42.070;24.752;2023-04-03T13:38:06;6.65;;;5.95;;
10947;SDS011;5526;42.070;24.752;2023-04-03T13:40:48;5.85;;;5.40;;
10947;SDS011;5526;42.070;24.752;2023-04-03T13:43:21;6.55;;;5.50;;
10947;SDS011;5526;42.070;24.752;2023-04-03T13:45:54;5.55;;;4.93;;
10947;SDS011;5526;42.070;24.752;2023-04-03T13:48:24;6.15;;;5.07;;
10947;SDS011;5526;42.070;24.752;2023-04-03T13:50:53;6.07;;;5.40;;
10947;SDS011;5526;42.070;24.752;2023-04-03T13:53:24;5.88;;;5.05;;
10947;SDS011;5526;42.070;24.752;2023-04-03T13:55:53;5.60;;;5.10;;
10947;SDS011;5526;42.070;24.752;2023-04-03T13:58:33;6.93;;;5.53;;
10947;SDS011;5526;42.070;24.752;2023-04-03T14:01:07;6.15;;;5.43;;
10947;SDS011;5526;42.070;24.752;2023-04-03T14:03:39;5.68;;;5.10;;
10947;SDS011;5526;42.070;24.752;2023-04-03T14:06:09;6.38;;;5.45;;
10947;SDS011;5526;42.070;24.752;2023-04-03T14:08:37;6.43;;;5.80;;
10947;SDS011;5526;42.070;24.752;2023-04-03T14:11:04;6.85;;;5.85;;
10947;SDS011;5526;42.070;24.752;2023-04-03T14:13:32;8.98;;;6.25;;
10947;SDS011;5526;42.070;24.752;2023-04-03T14:15:59;9.02;;;6.88;;
10947;SDS011;5526;42.070;24.752;2023-04-03T14:18:27;8.15;;;7.40;;
10947;SDS011;5526;42.070;24.752;2023-04-03T14:20:54;8.70;;;7.90;;
10947;SDS011;5526;42.070;24.752;2023-04-03T14:23:20;8.18;;;7.13;;
10947;SDS011;5526;42.070;24.752;2023-04-03T14:25:47;8.52;;;7.40;;
10947;SDS011;5526;42.070;24.752;2023-04-03T14:28:16;8.63;;;7.70;;
10947;SDS011;5526;42.070;24.752;2023-04-03T14:30:47;8.88;;;8.18;;
10947;SDS011;5526;42.070;24.752;2023-04-03T14:33:17;11.20;;;9.32;;
10947;SDS011;5526;42.070;24.752;2023-04-03T14:35:46;9.60;;;8.65;;
10947;SDS011;5526;42.070;24.752;2023-04-03T14:38:20;9.35;;;8.23;;
10947;SDS011;5526;42.070;24.752;2023-04-03T14:40:49;10.10;;;8.15;;
10947;SDS011;5526;42.070;24.752;2023-04-03T14:43:17;9.60;;;8.68;;
10947;SDS011;5526;42.070;24.752;2023-04-03T14:45:46;9.88;;;8.98;;
10947;SDS011;5526;42.070;24.752;2023-04-03T14:48:15;10.63;;;8.77;;
10947;SDS011;5526;42.070;24.752;2023-04-03T14:50:45;9.63;;;8.73;;
10947;SDS011;5526;42.070;24.752;2023-04-03T14:53:14;10.32;;;8.65;;
10947;SDS011;5526;42.070;24.752;2023-04-03T14:55:42;8.82;;;7.53;;
10947;SDS011;5526;42.070;24.752;2023-04-03T14:58:15;10.98;;;8.43;;
10947;SDS011;5526;42.070;24.752;2023-04-03T15:00:46;12.25;;;9.48;;
10947;SDS011;5526;42.070;24.752;2023-04-03T15:03:14;10.38;;;8.02;;
10947;SDS011;5526;42.070;24.752;2023-04-03T15:05:43;11.57;;;8.48;;
10947;SDS011;5526;42.070;24.752;2023-04-03T15:08:16;9.55;;;7.75;;
10947;SDS011;5526;42.070;24.752;2023-04-03T15:10:45;10.80;;;8.25;;
10947;SDS011;5526;42.070;24.752;2023-04-03T15:13:12;11.05;;;8.90;;
10947;SDS011;5526;42.070;24.752;2023-04-03T15:15:39;10.02;;;9.00;;
10947;SDS011;5526;42.070;24.752;2023-04-03T15:18:09;12.05;;;9.82;;
10947;SDS011;5526;42.070;24.752;2023-04-03T15:20:40;11.35;;;10.25;;
10947;SDS011;5526;42.070;24.752;2023-04-03T15:23:08;13.45;;;10.57;;
10947;SDS011;5526;42.070;24.752;2023-04-03T15:25:37;12.48;;;11.10;;
10947;SDS011;5526;42.070;24.752;2023-04-03T15:28:05;11.38;;;10.23;;
10947;SDS011;5526;42.070;24.752;2023-04-03T15:30:32;10.60;;;9.50;;